Time;durP1;ratioP1;P1;durP2;ratioP2;P2;SDS_P1;SDS_P2;PMS_P1;PMS_P2;Temp;Humidity;BMP_temperature;BMP_pressure;BME280_temperature;BME280_humidity;BME280_pressure;Samples;Min_cycle;Max_cycle;Signal;HPM_P1;HPM_P2
2022/12/04 00:02:10;;;;;;;52.10;19.05;;;;;;;4.18;66.18;98857.31;5114417;28;20102;-83
2022/12/04 00:05:01;;;;;;;49.72;17.55;;;;;;;4.30;66.52;98858.22;5122523;29;20414;-83
2022/12/04 00:07:51;;;;;;;52.65;18.52;;;;;;;4.02;66.79;98849.66;5108714;29;20053;-83
2022/12/04 00:10:42;;;;;;;48.60;17.20;;;;;;;4.04;67.58;98866.16;5121370;28;20061;-83
2022/12/04 00:13:33;;;;;;;51.30;17.42;;;;;;;3.77;67.75;98860.97;5143088;28;20051;-83
2022/12/04 00:16:25;;;;;;;46.97;17.75;;;;;;;3.44;68.88;98832.63;5142520;28;20058;-83
2022/12/04 00:19:16;;;;;;;43.70;16.25;;;;;;;3.94;67.45;98828.34;5138070;28;20061;-83
2022/12/04 00:22:06;;;;;;;45.35;16.75;;;;;;;3.92;67.74;98846.81;5113628;28;20142;-83
2022/12/04 00:24:56;;;;;;;42.70;16.42;;;;;;;3.47;68.16;98835.88;5143310;28;20046;-83
2022/12/04 00:27:46;;;;;;;47.85;16.17;;;;;;;3.49;68.77;98835.78;5143497;28;20051;-83
2022/12/04 00:30:40;;;;;;;44.58;17.08;;;;;;;3.62;67.45;98822.72;5143718;28;20166;-83
2022/12/04 00:33:30;;;;;;;49.55;17.48;;;;;;;3.72;67.89;98836.88;5137017;28;20055;-84
2022/12/04 00:36:23;;;;;;;48.03;17.27;;;;;;;4.02;67.68;98844.41;5135847;28;20054;-83
2022/12/04 00:39:13;;;;;;;50.75;16.83;;;;;;;4.15;66.83;98824.25;5140830;28;20046;-84
2022/12/04 00:42:04;;;;;;;43.13;15.52;;;;;;;3.69;67.95;98824.78;5143434;28;20086;-85
2022/12/04 00:44:54;;;;;;;43.97;16.27;;;;;;;3.71;66.94;98804.56;5144597;28;20074;-84
2022/12/04 00:47:44;;;;;;;45.63;16.13;;;;;;;4.15;66.46;98850.47;5124841;29;20058;-84
2022/12/04 00:50:35;;;;;;;42.30;16.63;;;;;;;3.87;67.64;98842.84;5120271;28;20063;-84
2022/12/04 00:53:25;;;;;;;48.28;17.00;;;;;;;3.98;67.26;98832.47;5138797;28;20054;-85
2022/12/04 00:56:19;;;;;;;46.08;16.50;;;;;;;3.69;67.52;98837.91;5097969;29;20115;-84
2022/12/04 00:59:09;;;;;;;45.60;16.23;;;;;;;3.27;68.91;98836.38;5143686;28;20469;-83
2022/12/04 01:01:59;;;;;;;43.28;16.73;;;;;;;3.86;68.13;98828.06;5151360;28;20081;-83
2022/12/04 01:04:49;;;;;;;45.83;16.55;;;;;;;4.06;67.58;98830.13;5133013;29;20055;-84
2022/12/04 01:07:40;;;;;;;41.47;15.88;;;;;;;3.97;67.38;98820.25;5145562;28;20128;-83
2022/12/04 01:10:30;;;;;;;44.47;16.58;;;;;;;3.97;67.33;98831.63;5149362;28;20464;-85
2022/12/04 01:13:22;;;;;;;46.47;16.00;;;;;;;3.94;67.19;98794.25;5135801;28;20051;-83
2022/12/04 01:16:27;;;;;;;42.33;15.93;;;;;;;4.03;67.20;98811.97;5135176;28;20445;-84
2022/12/04 01:19:17;;;;;;;50.08;15.10;;;;;;;4.04;66.80;98818.06;5140374;28;20073;-84
2022/12/04 01:22:07;;;;;;;41.70;15.35;;;;;;;3.81;66.63;98777.69;5137461;28;20073;-84
2022/12/04 01:24:58;;;;;;;41.55;15.63;;;;;;;4.10;67.44;98820.25;5142503;28;20110;-84
2022/12/04 01:27:48;;;;;;;44.38;16.02;;;;;;;4.06;66.91;98801.25;5128430;28;20067;-84
2022/12/04 01:30:38;;;;;;;42.55;15.77;;;;;;;4.10;66.48;98813.22;5135894;28;20051;-85
2022/12/04 01:33:29;;;;;;;42.13;15.98;;;;;;;3.97;67.04;98794.91;5151177;28;20047;-85
2022/12/04 01:36:23;;;;;;;46.42;15.25;;;;;;;3.99;66.91;98821.00;5151738;28;20101;-84
2022/12/04 01:39:13;;;;;;;;;;;;;;;3.78;67.82;98831.22;5166009;28;20062;-85
2022/12/04 01:42:04;;;;;;;38.92;15.55;;;;;;;3.54;68.68;98817.97;5128066;28;19922;-84
2022/12/04 01:45:25;;;;;;;40.33;15.70;;;;;;;3.63;68.44;98827.00;5135181;28;20047;-84
2022/12/04 01:48:30;;;;;;;40.25;15.27;;;;;;;4.09;68.00;98818.59;5148288;28;20047;-84
2022/12/04 01:51:29;;;;;;;44.03;16.20;;;;;;;4.13;66.96;98806.91;5148991;28;20062;-85
2022/12/04 01:54:28;;;;;;;41.55;15.73;;;;;;;4.15;65.75;98802.41;5150998;28;20081;-84
2022/12/04 01:57:21;;;;;;;39.85;14.98;;;;;;;4.16;65.92;98799.66;5151358;28;20062;-84
2022/12/04 02:00:14;;;;;;;43.22;14.93;;;;;;;4.17;66.75;98811.88;5139905;28;20137;-84
2022/12/04 02:03:04;;;;;;;37.97;14.45;;;;;;;4.05;67.39;98802.22;5133352;28;20062;-84
2022/12/04 02:05:55;;;;;;;38.13;14.90;;;;;;;4.20;67.21;98819.50;5127170;28;20513;-85
2022/12/04 02:08:45;;;;;;;41.78;15.18;;;;;;;4.15;66.87;98790.13;5149146;28;20190;-85
2022/12/04 02:11:49;;;;;;;37.97;14.52;;;;;;;4.36;66.29;98836.78;5123093;28;20061;-84
2022/12/04 02:14:55;;;;;;;42.35;14.40;;;;;;;4.35;66.94;98829.88;5105270;28;20097;-84
2022/12/04 02:18:11;;;;;;;37.42;14.02;;;;;;;4.41;66.71;98814.53;5134373;28;20138;-84
2022/12/04 02:21:12;;;;;;;42.58;15.40;;;;;;;4.53;66.20;98832.97;5111345;29;20107;-84
2022/12/04 02:24:41;;;;;;;39.00;14.52;;;;;;;4.46;66.36;98824.69;5156630;28;20058;-84
2022/12/04 02:27:39;;;;;;;41.67;15.18;;;;;;;4.49;66.50;98819.22;5145539;28;20066;-84
2022/12/04 02:30:31;;;;;;;42.40;15.32;;;;;;;3.84;67.69;98787.97;5145791;28;20058;-84
2022/12/04 02:33:25;;;;;;;42.10;15.20;;;;;;;4.21;66.82;98786.25;5131600;28;20094;-84
2022/12/04 02:36:20;;;;;;;38.92;15.45;;;;;;;4.23;67.05;98769.41;5127003;28;20058;-84
2022/12/04 02:39:21;;;;;;;39.67;13.32;;;;;;;4.43;66.53;98806.53;5140456;28;20065;-84
2022/12/04 02:42:32;;;;;;;45.30;14.77;;;;;;;4.30;66.79;98792.59;5114489;28;20067;-84
2022/12/04 02:45:28;;;;;;;39.55;14.80;;;;;;;4.26;66.89;98775.41;5130779;28;20054;-83
2022/12/04 02:48:20;;;;;;;45.78;15.73;;;;;;;4.45;66.71;98815.97;5130627;28;20309;-84
2022/12/04 02:51:15;;;;;;;42.90;15.02;;;;;;;4.25;65.96;98787.69;5144427;28;20065;-83
2022/12/04 02:54:34;;;;;;;39.08;15.45;;;;;;;4.38;67.13;98814.75;5131582;28;20062;-83
2022/12/04 02:57:30;;;;;;;39.92;14.38;;;;;;;4.23;66.74;98790.41;5139014;28;20077;-84
2022/12/04 03:00:21;;;;;;;43.15;15.73;;;;;;;3.93;67.22;98764.56;5130177;28;20061;-84
2022/12/04 03:03:22;;;;;;;45.05;16.35;;;;;;;3.97;68.43;98780.91;5130117;28;20065;-83
2022/12/04 03:06:15;;;;;;;44.88;16.27;;;;;;;4.13;67.70;98768.41;5141951;28;20042;-84
2022/12/04 03:09:20;;;;;;;39.90;15.02;;;;;;;4.05;68.77;98796.13;5147007;28;20061;-84
2022/12/04 03:12:25;;;;;;;40.55;15.38;;;;;;;4.38;66.77;98791.13;5143895;28;20065;-83
2022/12/04 03:15:18;;;;;;;44.83;16.27;;;;;;;4.05;67.72;98764.66;5131213;28;20054;-84
2022/12/04 03:18:17;;;;;;;49.25;16.10;;;;;;;4.17;67.14;98780.38;5131241;28;20050;-83
2022/12/04 03:21:16;;;;;;;44.13;16.27;;;;;;;4.63;66.68;98786.72;5158101;28;20054;-83
2022/12/04 03:24:16;;;;;;;43.53;16.15;;;;;;;3.58;68.92;98767.03;5150272;28;20051;-84
2022/12/04 03:27:31;;;;;;;41.33;15.15;;;;;;;3.94;68.99;98770.63;5126631;29;20054;-83
2022/12/04 03:30:22;;;;;;;49.42;16.42;;;;;;;4.05;68.88;98772.53;5150110;28;20058;-83
2022/12/04 03:33:20;;;;;;;45.83;16.73;;;;;;;4.35;68.03;98777.38;5131546;28;20133;-83
2022/12/04 03:36:18;;;;;;;45.22;17.38;;;;;;;4.28;67.53;98763.03;5137371;28;20085;-83
2022/12/04 03:39:21;;;;;;;45.40;16.92;;;;;;;3.69;69.39;98774.16;5157759;28;20051;-83
2022/12/04 03:42:20;;;;;;;47.35;16.10;;;;;;;4.02;68.65;98757.00;5129717;28;20125;-83
2022/12/04 03:45:18;;;;;;;44.08;17.05;;;;;;;4.29;68.57;98773.41;5130635;28;20054;-83
2022/12/04 03:48:19;;;;;;;44.78;16.65;;;;;;;4.21;67.16;98752.97;5133318;28;20090;-83
2022/12/04 03:51:18;;;;;;;45.70;16.83;;;;;;;3.94;68.54;98736.53;5130609;28;20086;-83
2022/12/04 03:54:13;;;;;;;42.78;16.65;;;;;;;4.44;67.50;98759.19;5112485;29;20557;-83
2022/12/04 03:57:13;;;;;;;41.90;16.05;;;;;;;4.23;67.66;98732.69;5124382;28;20693;-83
2022/12/04 04:00:09;;;;;;;43.50;15.35;;;;;;;4.20;67.46;98753.88;5155153;28;20516;-83
2022/12/04 04:03:09;;;;;;;41.35;15.27;;;;;;;4.32;68.11;98761.84;5131259;28;20193;-83
2022/12/04 04:06:06;;;;;;;43.67;16.08;;;;;;;4.21;67.88;98766.09;5145422;28;20126;-83
2022/12/04 04:09:03;;;;;;;42.10;15.40;;;;;;;4.25;68.04;98753.56;5144380;28;20500;-83
2022/12/04 04:12:03;;;;;;;39.45;15.82;;;;;;;4.04;67.94;98769.06;5142225;28;20058;-83
2022/12/04 04:24:34;;;;;;;46.65;15.93;;;;;;;4.54;67.60;98785.63;5145482;28;20476;-84
2022/12/04 04:27:25;;;;;;;43.45;16.00;;;;;;;4.51;67.51;98774.50;5110986;29;20048;-84
2022/12/04 04:30:15;;;;;;;44.58;16.52;;;;;;;4.46;67.86;98780.91;5146526;28;20105;-83
2022/12/04 04:33:15;;;;;;;43.80;15.80;;;;;;;4.54;67.40;98782.16;5156755;28;20074;-82
2022/12/04 04:36:43;;;;;;;49.80;16.42;;;;;;;4.72;66.95;98799.19;5126201;29;20520;-83
2022/12/04 04:39:47;;;;;;;48.40;17.50;;;;;;;4.78;66.81;98795.28;5138273;28;20052;-83
2022/12/04 04:42:56;;;;;;;46.90;17.60;;;;;;;4.63;66.89;98784.09;5143203;28;20612;-82
2022/12/04 04:45:53;;;;;;;40.90;16.35;;;;;;;4.59;66.83;98790.53;5145223;28;20053;-82
2022/12/04 04:48:47;;;;;;;42.67;16.23;;;;;;;4.35;66.68;98756.38;5124832;29;20055;-83
2022/12/04 04:51:38;;;;;;;45.53;17.40;;;;;;;4.52;67.36;98766.50;5111617;29;20131;-83
2022/12/04 04:54:32;;;;;;;42.22;16.52;;;;;;;4.63;65.99;98774.41;5117976;28;20106;-82
2022/12/04 04:57:34;;;;;;;43.60;17.08;;;;;;;4.71;65.49;98764.22;5147323;28;20051;-83
2022/12/04 05:00:24;;;;;;;41.80;17.27;;;;;;;4.62;66.50;98780.63;5127922;28;20465;-84
2022/12/04 05:03:14;;;;;;;44.50;18.33;;;;;;;4.80;65.83;98777.59;5142953;28;20061;-83
2022/12/04 05:06:05;;;;;;;43.15;17.35;;;;;;;4.39;65.99;98779.66;5142468;28;20176;-82
2022/12/04 05:08:55;;;;;;;43.88;17.90;;;;;;;4.51;67.03;98798.97;5142504;28;20061;-83
2022/12/04 05:11:45;;;;;;;48.58;17.25;;;;;;;4.77;66.24;98806.72;5128968;28;20055;-83
2022/12/04 05:14:35;;;;;;;43.88;17.42;;;;;;;4.45;66.70;98794.97;5143307;28;20145;-83
2022/12/04 05:17:25;;;;;;;44.88;18.00;;;;;;;4.34;66.99;98778.31;5136683;28;20062;-83
2022/12/04 05:20:15;;;;;;;48.22;18.05;;;;;;;4.36;66.65;98781.69;5109739;29;20047;-83
2022/12/04 05:23:06;;;;;;;42.72;18.00;;;;;;;4.61;66.09;98778.97;5133239;28;20113;-83
2022/12/04 05:26:01;;;;;;;49.95;18.83;;;;;;;4.47;66.85;98784.38;5137008;28;20047;-83
2022/12/04 05:28:51;;;;;;;49.17;19.17;;;;;;;4.36;67.31;98795.63;5111464;28;20063;-83
2022/12/04 05:31:41;;;;;;;48.50;19.02;;;;;;;4.45;67.20;98781.84;5123899;29;20051;-84
2022/12/04 05:34:32;;;;;;;44.33;17.88;;;;;;;4.60;66.43;98777.28;5145233;28;20046;-82
2022/12/04 05:37:23;;;;;;;48.65;19.90;;;;;;;4.69;66.32;98786.28;5156211;28;20112;-83
2022/12/04 05:40:13;;;;;;;45.08;17.58;;;;;;;4.48;66.70;98757.19;5127651;28;20525;-83
2022/12/04 05:43:03;;;;;;;46.05;17.63;;;;;;;4.49;66.81;98779.84;5129475;28;20061;-82
2022/12/04 05:45:53;;;;;;;49.13;18.88;;;;;;;4.61;66.63;98773.72;5131126;28;20054;-82
2022/12/04 05:48:43;;;;;;;47.53;19.10;;;;;;;4.39;66.72;98742.09;5111914;28;20631;-83
2022/12/04 05:51:33;;;;;;;48.70;18.83;;;;;;;4.57;66.34;98767.00;5111986;29;20055;-82
2022/12/04 05:54:24;;;;;;;44.35;18.08;;;;;;;4.63;66.79;98773.59;5127497;29;20059;-83
2022/12/04 05:57:15;;;;;;;48.22;19.55;;;;;;;3.63;68.31;98766.69;5133061;28;20413;-83
2022/12/04 06:00:05;;;;;;;49.85;19.40;;;;;;;4.27;67.22;98774.44;5133086;28;20058;-83
2022/12/04 06:02:59;;;;;;;46.55;19.13;;;;;;;4.45;67.20;98767.91;5135308;28;20469;-83
2022/12/04 06:05:50;;;;;;;46.10;18.80;;;;;;;4.56;67.42;98775.81;5147011;28;20117;-83
2022/12/04 06:08:40;;;;;;;48.42;18.42;;;;;;;4.63;66.83;98777.03;5138074;28;20057;-83
2022/12/04 06:11:33;;;;;;;48.40;18.88;;;;;;;4.36;67.76;98786.91;5139146;28;20509;-83
2022/12/04 06:14:24;;;;;;;47.53;19.23;;;;;;;4.34;68.21;98773.91;5143002;28;20074;-84
2022/12/04 06:17:14;;;;;;;46.95;18.40;;;;;;;4.60;66.64;98781.69;5132830;28;20094;-83
2022/12/04 06:20:05;;;;;;;43.17;16.67;;;;;;;4.59;66.32;98788.72;5163270;28;20057;-83
2022/12/04 06:23:01;;;;;;;42.55;17.02;;;;;;;4.53;66.70;98772.56;5152908;28;20575;-83
2022/12/04 06:25:51;;;;;;;43.90;17.10;;;;;;;4.56;66.13;98752.19;5159334;28;20569;-83
2022/12/04 06:28:42;;;;;;;38.50;17.50;;;;;;;4.55;66.92;98778.56;5145843;28;20524;-83
2022/12/04 06:31:34;;;;;;;40.20;16.92;;;;;;;4.61;66.88;98792.09;5125530;29;20059;-83
2022/12/04 06:34:25;;;;;;;49.22;18.83;;;;;;;4.47;66.99;98756.34;5134488;28;20055;-83
2022/12/04 06:37:16;;;;;;;43.65;17.42;;;;;;;4.56;66.51;98774.97;5112316;29;20047;-84
2022/12/04 06:40:06;;;;;;;47.72;18.15;;;;;;;4.57;66.75;98776.66;5112061;29;20074;-83
2022/12/04 06:42:57;;;;;;;39.47;17.38;;;;;;;4.50;66.86;98770.19;5126137;29;20062;-83
2022/12/04 06:45:47;;;;;;;43.25;19.13;;;;;;;4.51;67.57;98779.75;5136850;28;20057;-83
2022/12/04 06:48:38;;;;;;;39.05;16.30;;;;;;;4.57;66.72;98761.75;5153066;28;20538;-83
2022/12/04 06:51:34;;;;;;;45.25;17.20;;;;;;;4.61;66.93;98762.38;5149532;28;20433;-83
2022/12/04 06:54:25;;;;;;;42.53;16.58;;;;;;;4.71;67.25;98790.47;5146656;28;20058;-83
2022/12/04 06:57:15;;;;;;;42.80;17.98;;;;;;;4.61;67.06;98783.38;5146763;28;20058;-83
2022/12/04 07:00:06;;;;;;;43.92;17.45;;;;;;;4.21;68.18;98771.34;5133839;28;20548;-83
2022/12/04 07:02:56;;;;;;;43.67;17.15;;;;;;;4.51;67.00;98785.00;5132794;28;20066;-82
2022/12/04 07:05:47;;;;;;;38.88;16.75;;;;;;;4.63;66.90;98784.94;5128475;28;20078;-83
2022/12/04 07:08:37;;;;;;;43.58;17.70;;;;;;;4.37;67.13;98759.72;5157365;28;20054;-83
2022/12/04 07:11:27;;;;;;;42.22;18.00;;;;;;;4.39;68.13;98797.22;5139016;28;20600;-82
2022/12/04 07:14:17;;;;;;;42.72;17.02;;;;;;;4.44;67.75;98779.34;5148237;28;20047;-83
2022/12/04 07:17:07;;;;;;;42.55;17.27;;;;;;;4.46;67.15;98782.69;5133927;28;20047;-83
2022/12/04 07:19:58;;;;;;;44.08;16.10;;;;;;;4.44;67.28;98776.72;5146193;28;20069;-83
2022/12/04 07:22:48;;;;;;;39.47;15.07;;;;;;;4.46;66.71;98782.69;5146881;28;20050;-83
2022/12/04 07:25:39;;;;;;;36.20;14.82;;;;;;;3.99;68.32;98771.16;5152527;28;20054;-84
2022/12/04 07:28:29;;;;;;;39.42;15.70;;;;;;;4.12;68.23;98774.59;5153861;28;20058;-83
2022/12/04 07:31:21;;;;;;;34.53;13.48;;;;;;;4.51;67.60;98788.47;5142004;28;20065;-83
2022/12/04 07:34:12;;;;;;;37.92;15.05;;;;;;;4.34;67.90;98792.28;5154818;28;20109;-83
2022/12/04 07:37:02;;;;;;;44.30;16.88;;;;;;;4.22;67.58;98785.28;5159608;28;20141;-82
2022/12/04 07:39:52;;;;;;;38.25;15.32;;;;;;;4.38;67.41;98766.66;5147557;28;20055;-84
2022/12/04 07:42:43;;;;;;;36.65;15.50;;;;;;;4.35;67.67;98788.72;5145869;28;20057;-84
2022/12/04 07:45:33;;;;;;;38.10;14.50;;;;;;;4.60;67.00;98769.41;5130094;28;20432;-83
2022/12/04 07:48:23;;;;;;;42.53;15.23;;;;;;;4.58;67.74;98783.59;5145740;28;20421;-83
2022/12/04 07:51:23;;;;;;;40.47;14.77;;;;;;;4.48;67.01;98788.69;5133934;28;20062;-83
2022/12/04 07:54:14;;;;;;;38.45;14.88;;;;;;;4.30;68.15;98777.69;5113532;29;20078;-83
2022/12/04 07:57:04;;;;;;;35.85;14.07;;;;;;;4.61;68.05;98786.84;5133819;28;20055;-82
2022/12/04 07:59:54;;;;;;;35.20;15.00;;;;;;;4.52;67.28;98777.00;5137541;28;20069;-82
2022/12/04 08:02:45;;;;;;;39.25;14.80;;;;;;;4.65;66.98;98780.41;5144780;28;20059;-83
2022/12/04 08:05:35;;;;;;;37.55;14.73;;;;;;;4.45;66.56;98767.91;5129833;28;20165;-83
2022/12/04 08:08:25;;;;;;;39.35;14.98;;;;;;;4.50;67.21;98781.50;5136446;28;20520;-83
2022/12/04 08:11:18;;;;;;;36.83;13.85;;;;;;;4.86;66.88;98816.56;5146938;28;20072;-83
2022/12/04 08:14:10;;;;;;;36.35;14.88;;;;;;;4.90;66.01;98812.75;5145454;28;20046;-85
2022/12/04 08:17:01;;;;;;;36.00;14.70;;;;;;;4.65;67.05;98792.72;5112142;28;20572;-84
2022/12/04 08:19:51;;;;;;;43.53;16.83;;;;;;;4.75;67.25;98785.84;5134967;28;20196;-83
2022/12/04 08:22:42;;;;;;;43.28;15.52;;;;;;;4.43;68.17;98785.53;5150108;28;20096;-84
2022/12/04 08:25:32;;;;;;;46.20;16.60;;;;;;;4.68;67.24;98790.69;5115057;28;20062;-84
2022/12/04 08:28:22;;;;;;;37.17;13.75;;;;;;;4.55;67.40;98783.81;5140738;28;20559;-83
2022/12/04 08:31:17;;;;;;;49.08;17.77;;;;;;;4.63;67.30;98797.22;5141974;28;20390;-82
2022/12/04 08:34:08;;;;;;;39.95;15.65;;;;;;;4.91;66.63;98796.91;5133409;28;20078;-82
2022/12/04 08:36:58;;;;;;;39.10;15.30;;;;;;;4.80;67.33;98793.38;5128760;28;20053;-83
2022/12/04 08:39:48;;;;;;;36.38;15.27;;;;;;;4.75;67.26;98796.34;5128947;28;20057;-83
2022/12/04 08:42:38;;;;;;;35.03;13.80;;;;;;;4.80;66.32;98783.72;5130647;28;20053;-81
2022/12/04 08:45:28;;;;;;;46.03;15.63;;;;;;;4.67;66.52;98773.28;5147067;28;20117;-84
2022/12/04 08:48:18;;;;;;;39.10;14.23;;;;;;;4.50;68.17;98793.81;5138227;28;20129;-83
2022/12/04 08:51:19;;;;;;;41.65;14.95;;;;;;;4.74;67.19;98810.44;5136732;28;20058;-83
2022/12/04 08:54:11;;;;;;;39.42;14.98;;;;;;;4.68;67.96;98803.81;5140000;28;20090;-84
2022/12/04 08:57:02;;;;;;;35.50;14.45;;;;;;;4.64;67.31;98772.66;5131793;28;20050;-83
2022/12/04 08:59:52;;;;;;;38.83;14.60;;;;;;;4.91;67.18;98817.06;5114280;28;20474;-83
2022/12/04 09:02:43;;;;;;;41.97;14.88;;;;;;;5.05;66.42;98816.88;5139630;28;20073;-83
2022/12/04 09:05:33;;;;;;;37.78;14.63;;;;;;;4.93;66.73;98815.16;5147663;28;20166;-82
2022/12/04 09:08:24;;;;;;;39.80;14.73;;;;;;;4.90;67.50;98825.88;5147118;28;20046;-82
2022/12/04 09:11:17;;;;;;;39.28;13.60;;;;;;;5.02;66.11;98825.00;5129325;28;20050;-81
2022/12/04 09:14:08;;;;;;;34.45;13.45;;;;;;;5.03;65.70;98826.66;5105893;28;20097;-83
2022/12/04 09:16:58;;;;;;;35.17;13.82;;;;;;;4.91;67.07;98832.84;5126672;28;20050;-82
2022/12/04 09:19:49;;;;;;;39.47;14.73;;;;;;;4.74;66.64;98825.34;5136295;28;20058;-82
2022/12/04 09:22:39;;;;;;;39.13;14.35;;;;;;;4.92;66.15;98824.84;5169730;28;20110;-83
2022/12/04 09:25:49;;;;;;;34.85;13.55;;;;;;;5.04;66.88;98838.88;5154896;28;20057;-83
2022/12/04 09:28:40;;;;;;;34.70;13.57;;;;;;;4.92;65.94;98814.31;5136212;28;20054;-83
2022/12/04 09:31:31;;;;;;;33.60;14.18;;;;;;;5.06;65.95;98825.59;5149408;28;20093;-85
2022/12/04 09:34:22;;;;;;;35.38;13.80;;;;;;;4.82;65.98;98808.06;5166623;28;20059;-84
2022/12/04 09:37:12;;;;;;;36.75;14.77;;;;;;;4.94;66.29;98830.00;5152209;28;20050;-83
2022/12/04 09:40:05;;;;;;;33.60;13.93;;;;;;;5.19;65.52;98819.31;5149062;28;20061;-82
2022/12/04 09:43:16;;;;;;;32.10;12.65;;;;;;;4.95;66.30;98805.38;5137376;28;20057;-82
2022/12/04 09:46:11;;;;;;;36.03;13.23;;;;;;;4.96;66.38;98796.53;5166064;28;20065;-82
2022/12/04 09:49:10;;;;;;;36.10;14.77;;;;;;;4.85;66.89;98781.56;5130705;28;20046;-83
2022/12/04 09:52:02;;;;;;;31.65;13.75;;;;;;;4.92;66.28;98766.19;5144167;28;20085;-83
2022/12/04 09:54:54;;;;;;;31.50;13.23;;;;;;;5.07;66.29;98778.22;5147747;28;20645;-83
2022/12/04 09:57:48;;;;;;;33.83;13.40;;;;;;;5.00;66.51;98784.88;5153202;28;20065;-83
2022/12/04 10:00:44;;;;;;;29.58;12.63;;;;;;;5.10;65.04;98775.34;5156214;28;20114;-82
2022/12/04 10:03:40;;;;;;;31.55;13.88;;;;;;;5.12;66.05;98757.66;5108823;29;20062;-83
2022/12/04 10:06:56;;;;;;;33.67;13.07;;;;;;;5.14;66.69;98747.88;5131629;28;20413;-83
2022/12/04 10:09:59;;;;;;;32.97;12.95;;;;;;;5.09;66.55;98741.28;5138937;28;20090;-83
2022/12/04 10:13:02;;;;;;;33.40;13.35;;;;;;;5.19;66.40;98735.22;5135811;28;20119;-84
2022/12/04 10:16:16;;;;;;;36.03;13.45;;;;;;;5.39;65.93;98748.63;5146795;28;20238;-83
2022/12/04 10:19:14;;;;;;;30.27;13.00;;;;;;;5.30;66.22;98726.53;5147302;28;20088;-83
2022/12/04 10:22:33;;;;;;;34.55;13.20;;;;;;;5.40;65.71;98740.66;5124690;28;20521;-82
2022/12/04 10:25:25;;;;;;;41.03;15.68;;;;;;;5.38;65.96;98736.47;5082174;28;20101;-83
2022/12/04 10:28:25;;;;;;;31.42;12.98;;;;;;;5.49;65.84;98735.63;5146310;28;20046;-82
2022/12/04 10:31:15;;;;;;;33.60;13.77;;;;;;;5.26;65.88;98697.94;5151615;28;20507;-83
2022/12/04 10:34:27;;;;;;;47.28;17.70;;;;;;;5.53;65.77;98734.44;5148685;28;20139;-83
2022/12/04 10:37:18;;;;;;;35.17;14.00;;;;;;;5.25;65.33;98691.03;5154515;28;20065;-83
2022/12/04 10:40:22;;;;;;;33.95;14.43;;;;;;;5.46;65.83;98717.47;5146371;28;20123;-83
2022/12/04 10:43:22;;;;;;;34.25;13.88;;;;;;;5.26;65.37;98711.94;5116676;29;20066;-82
2022/12/04 10:46:22;;;;;;;40.70;15.73;;;;;;;5.37;65.45;98724.28;5138569;28;20046;-83
2022/12/04 10:49:21;;;;;;;42.75;16.75;;;;;;;5.55;65.81;98741.25;5153746;28;20141;-83
2022/12/04 10:52:12;;;;;;;34.05;13.45;;;;;;;5.57;65.18;98744.63;5139103;28;20189;-83
2022/12/04 10:55:02;;;;;;;35.53;14.40;;;;;;;5.55;64.80;98743.88;5147749;28;20114;-82
2022/12/04 10:57:55;;;;;;;35.03;13.07;;;;;;;5.35;64.94;98739.31;5164552;28;20055;-83
2022/12/04 11:01:01;;;;;;;30.15;12.77;;;;;;;5.42;65.73;98743.97;5147667;28;20056;-83
2022/12/04 11:04:02;;;;;;;30.85;12.02;;;;;;;5.51;65.17;98747.72;5149488;28;20493;-82
2022/12/04 11:07:02;;;;;;;27.50;12.35;;;;;;;5.54;64.41;98739.59;5152828;28;20049;-82
2022/12/04 11:10:02;;;;;;;29.40;12.43;;;;;;;5.61;64.35;98753.94;5144802;28;20049;-83
2022/12/04 11:12:54;;;;;;;31.15;12.23;;;;;;;5.62;64.51;98729.28;5111247;29;20055;-82
2022/12/04 11:15:48;;;;;;;31.73;13.15;;;;;;;5.51;64.52;98721.41;5152473;28;20552;-83
2022/12/04 11:18:49;;;;;;;28.08;10.85;;;;;;;5.44;64.49;98706.22;5125348;28;20051;-83
2022/12/04 11:21:39;;;;;;;30.80;12.10;;;;;;;5.84;63.52;98728.47;5124086;28;20043;-82
2022/12/04 11:24:34;;;;;;;27.92;11.90;;;;;;;5.50;64.47;98709.22;5126869;28;20143;-83
2022/12/04 11:27:30;;;;;;;26.33;11.93;;;;;;;5.72;63.91;98724.16;5124841;29;20502;-82
2022/12/04 11:30:27;;;;;;;28.30;12.00;;;;;;;5.60;63.99;98715.44;5129366;28;20078;-82
2022/12/04 11:33:38;;;;;;;28.98;12.25;;;;;;;5.55;64.31;98724.63;5167196;28;20057;-81
2022/12/04 11:36:30;;;;;;;36.00;12.85;;;;;;;5.32;64.65;98711.47;5144848;28;20054;-82
2022/12/04 11:39:23;;;;;;;33.35;13.20;;;;;;;5.55;64.33;98730.72;5134472;28;20050;-82
2022/12/04 11:42:18;;;;;;;30.50;14.20;;;;;;;5.37;64.67;98727.75;5126364;28;20265;-82
2022/12/04 11:45:19;;;;;;;33.15;13.52;;;;;;;5.50;63.98;98708.41;5144764;28;20053;-82
2022/12/04 11:48:15;;;;;;;32.10;12.95;;;;;;;5.46;64.57;98717.47;5140348;28;20054;-82
2022/12/04 11:51:35;;;;;;;28.05;12.25;;;;;;;5.51;64.44;98717.94;5141388;28;20052;-83
2022/12/04 11:54:43;;;;;;;31.70;12.48;;;;;;;5.45;64.25;98708.72;5138872;28;20625;-83
2022/12/04 11:57:42;;;;;;;25.23;11.90;;;;;;;5.55;65.29;98738.63;5135946;28;20055;-82
2022/12/04 12:00:38;;;;;;;31.88;12.80;;;;;;;5.55;65.31;98722.00;5137996;28;20053;-82
2022/12/04 12:03:41;;;;;;;34.88;14.40;;;;;;;5.55;65.03;98728.09;5162400;28;20418;-82
2022/12/04 12:06:38;;;;;;;31.20;13.60;;;;;;;5.59;65.09;98744.47;5142166;28;20628;-82
2022/12/04 12:09:40;;;;;;;31.67;12.60;;;;;;;5.61;65.58;98722.38;5142193;28;20576;-82
2022/12/04 12:12:52;;;;;;;31.73;12.48;;;;;;;5.46;65.83;98689.38;5148526;28;20057;-82
2022/12/04 12:16:14;;;;;;;26.73;12.13;;;;;;;5.67;64.19;98707.09;5107916;28;20581;-83
2022/12/04 12:19:12;;;;;;;30.65;12.75;;;;;;;5.60;66.31;98678.63;5053154;29;20058;-84
2022/12/04 12:22:32;;;;;;;32.53;13.45;;;;;;;5.65;65.80;98696.66;5108937;29;20051;-84
2022/12/04 12:26:02;;;;;;;48.72;18.10;;;;;;;5.49;66.18;98668.09;5121491;28;20125;-84
2022/12/04 12:29:13;;;;;;;34.35;13.35;;;;;;;5.55;66.10;98698.34;5141597;28;20057;-84
2022/12/04 12:32:16;;;;;;;34.30;14.02;;;;;;;5.32;66.42;98700.13;5095829;29;20097;-83
2022/12/04 12:35:35;;;;;;;52.35;17.73;;;;;;;5.66;65.88;98695.69;5144541;28;20498;-84
2022/12/04 12:38:32;;;;;;;79.60;23.95;;;;;;;5.42;66.49;98677.41;5125021;28;20134;-84
2022/12/04 12:41:29;;;;;;;38.22;15.25;;;;;;;5.30;66.03;98683.63;5128961;28;20061;-84
2022/12/04 12:44:25;;;;;;;36.88;14.38;;;;;;;5.53;65.98;98685.31;5124565;28;20055;-83
2022/12/04 12:47:19;;;;;;;46.78;16.63;;;;;;;5.48;65.40;98690.09;5122733;28;20110;-84
2022/12/04 12:50:31;;;;;;;41.58;17.63;;;;;;;5.62;65.39;98687.22;5122860;28;20055;-84
2022/12/04 12:53:28;;;;;;;31.98;13.07;;;;;;;5.70;65.79;98688.44;5131401;28;20050;-83
2022/12/04 12:56:24;;;;;;;34.42;13.43;;;;;;;5.71;65.75;98688.28;5132919;28;20050;-84
2022/12/04 12:59:21;;;;;;;33.00;13.43;;;;;;;5.48;65.72;98655.91;5132517;28;20169;-83
2022/12/04 13:02:44;;;;;;;34.53;14.90;;;;;;;5.83;65.03;98679.44;5112786;29;20421;-84
2022/12/04 13:05:42;;;;;;;41.40;15.93;;;;;;;5.74;65.20;98663.56;5135629;28;20429;-83
2022/12/04 13:08:42;;;;;;;41.15;15.50;;;;;;;5.46;66.21;98646.47;5147326;28;20050;-83
2022/12/04 13:11:39;;;;;;;41.20;16.75;;;;;;;5.29;67.75;98668.81;5151750;28;20135;-83
2022/12/04 13:14:29;;;;;;;40.38;15.10;;;;;;;5.41;66.08;98660.81;5157318;28;20057;-83
2022/12/04 13:17:30;;;;;;;35.70;14.40;;;;;;;5.32;66.41;98645.75;5154619;28;20140;-83
2022/12/04 13:20:30;;;;;;;36.42;14.25;;;;;;;5.40;66.39;98658.31;5142241;28;20058;-83
2022/12/04 13:23:48;;;;;;;33.28;13.95;;;;;;;5.51;66.67;98674.06;5131272;28;20227;-83
2022/12/04 13:26:48;;;;;;;37.72;14.27;;;;;;;5.40;65.88;98656.50;5127043;28;20051;-83
2022/12/04 13:29:59;;;;;;;36.38;14.23;;;;;;;5.28;67.09;98683.75;5116900;28;20419;-82
2022/12/04 13:33:15;;;;;;;37.95;15.02;;;;;;;5.56;66.57;98682.47;5149369;28;20065;-82
2022/12/04 13:36:30;;;;;;;43.85;16.15;;;;;;;5.39;66.81;98690.78;5112511;29;20057;-83
2022/12/04 13:40:03;;;;;;;44.20;16.38;;;;;;;5.51;66.97;98704.81;5111081;29;20171;-83
2022/12/04 13:43:11;;;;;;;43.45;15.35;;;;;;;5.28;66.35;98673.22;5136555;28;20057;-84
2022/12/04 13:46:06;;;;;;;41.40;15.77;;;;;;;5.59;66.44;98691.88;5104576;28;20190;-84
2022/12/04 13:49:07;;;;;;;47.78;16.63;;;;;;;5.54;66.74;98683.53;5164945;28;20073;-83
2022/12/04 13:51:58;;;;;;;41.20;15.70;;;;;;;5.49;67.18;98689.13;5150730;28;20053;-83